sensor_id;sensor_type;location;lat;lon;timestamp;P1;durP1;ratioP1;P2;durP2;ratioP2
65234;SDS011;51820;48.374;10.930;2023-02-13T00:00:37;23.77;;;10.65;;
65234;SDS011;51820;48.374;10.930;2023-02-13T00:03:05;22.52;;;9.27;;
65234;SDS011;51820;48.374;10.930;2023-02-13T00:05:36;21.08;;;8.27;;
65234;SDS011;51820;48.374;10.930;2023-02-13T00:08:04;18.85;;;7.25;;
65234;SDS011;51820;48.374;10.930;2023-02-13T00:10:44;19.70;;;7.88;;
65234;SDS011;51820;48.374;10.930;2023-02-13T00:13:13;16.77;;;7.00;;
65234;SDS011;51820;48.374;10.930;2023-02-13T00:15:53;16.33;;;6.47;;
65234;SDS011;51820;48.374;10.930;2023-02-13T00:18:22;16.70;;;7.05;;
65234;SDS011;51820;48.374;10.930;2023-02-13T00:20:56;25.30;;;7.05;;
65234;SDS011;51820;48.374;10.930;2023-02-13T00:23:28;19.95;;;7.10;;
65234;SDS011;51820;48.374;10.930;2023-02-13T00:26:05;18.10;;;7.28;;
65234;SDS011;51820;48.374;10.930;2023-02-13T00:28:45;21.90;;;6.93;;
65234;SDS011;51820;48.374;10.930;2023-02-13T00:31:14;22.35;;;8.13;;
65234;SDS011;51820;48.374;10.930;2023-02-13T00:36:37;23.10;;;7.25;;
65234;SDS011;51820;48.374;10.930;2023-02-13T00:39:29;23.95;;;7.15;;
65234;SDS011;51820;48.374;10.930;2023-02-13T00:42:05;17.75;;;7.45;;
65234;SDS011;51820;48.374;10.930;2023-02-13T00:45:04;21.55;;;7.50;;
65234;SDS011;51820;48.374;10.930;2023-02-13T00:47:32;25.35;;;7.72;;
65234;SDS011;51820;48.374;10.930;2023-02-13T00:50:30;23.67;;;7.55;;
65234;SDS011;51820;48.374;10.930;2023-02-13T00:52:59;18.30;;;7.35;;
65234;SDS011;51820;48.374;10.930;2023-02-13T00:55:27;18.10;;;7.50;;
65234;SDS011;51820;48.374;10.930;2023-02-13T00:58:05;29.77;;;8.02;;
65234;SDS011;51820;48.374;10.930;2023-02-13T01:00:33;25.98;;;7.93;;
65234;SDS011;51820;48.374;10.930;2023-02-13T01:03:03;21.20;;;8.43;;
65234;SDS011;51820;48.374;10.930;2023-02-13T01:06:16;19.52;;;7.47;;
65234;SDS011;51820;48.374;10.930;2023-02-13T01:08:31;24.38;;;8.57;;
65234;SDS011;51820;48.374;10.930;2023-02-13T01:11:07;26.05;;;8.70;;
65234;SDS011;51820;48.374;10.930;2023-02-13T01:13:50;21.27;;;8.38;;
65234;SDS011;51820;48.374;10.930;2023-02-13T01:16:32;22.70;;;8.48;;
65234;SDS011;51820;48.374;10.930;2023-02-13T01:19:03;28.98;;;7.95;;
65234;SDS011;51820;48.374;10.930;2023-02-13T01:21:31;33.30;;;8.30;;
65234;SDS011;51820;48.374;10.930;2023-02-13T01:24:01;19.63;;;8.48;;
65234;SDS011;51820;48.374;10.930;2023-02-13T01:26:34;26.17;;;7.47;;
65234;SDS011;51820;48.374;10.930;2023-02-13T01:29:12;21.00;;;7.32;;
65234;SDS011;51820;48.374;10.930;2023-02-13T01:31:41;23.25;;;7.70;;
65234;SDS011;51820;48.374;10.930;2023-02-13T01:34:13;20.20;;;7.80;;
65234;SDS011;51820;48.374;10.930;2023-02-13T01:36:44;22.10;;;6.45;;
65234;SDS011;51820;48.374;10.930;2023-02-13T01:39:13;35.53;;;6.95;;
65234;SDS011;51820;48.374;10.930;2023-02-13T01:41:42;17.17;;;6.80;;
65234;SDS011;51820;48.374;10.930;2023-02-13T01:47:34;22.10;;;7.55;;
65234;SDS011;51820;48.374;10.930;2023-02-13T01:50:31;19.77;;;6.72;;
65234;SDS011;51820;48.374;10.930;2023-02-13T01:59:45;27.13;;;8.25;;
65234;SDS011;51820;48.374;10.930;2023-02-13T02:02:44;39.55;;;9.02;;
65234;SDS011;51820;48.374;10.930;2023-02-13T02:05:20;22.00;;;8.30;;
65234;SDS011;51820;48.374;10.930;2023-02-13T02:07:51;23.63;;;8.20;;
65234;SDS011;51820;48.374;10.930;2023-02-13T02:10:27;29.15;;;8.57;;
65234;SDS011;51820;48.374;10.930;2023-02-13T02:13:25;33.42;;;9.18;;
65234;SDS011;51820;48.374;10.930;2023-02-13T02:16:00;24.40;;;7.68;;
65234;SDS011;51820;48.374;10.930;2023-02-13T02:18:30;20.40;;;8.07;;
65234;SDS011;51820;48.374;10.930;2023-02-13T02:24:28;27.52;;;7.95;;
65234;SDS011;51820;48.374;10.930;2023-02-13T02:30:56;27.85;;;7.45;;
65234;SDS011;51820;48.374;10.930;2023-02-13T02:34:07;33.05;;;8.27;;
65234;SDS011;51820;48.374;10.930;2023-02-13T02:37:04;20.10;;;7.30;;
65234;SDS011;51820;48.374;10.930;2023-02-13T02:39:47;21.63;;;6.35;;
65234;SDS011;51820;48.374;10.930;2023-02-13T02:42:29;19.08;;;7.93;;
65234;SDS011;51820;48.374;10.930;2023-02-13T02:45:07;26.42;;;7.88;;
65234;SDS011;51820;48.374;10.930;2023-02-13T02:47:51;22.52;;;8.18;;
65234;SDS011;51820;48.374;10.930;2023-02-13T02:50:45;17.92;;;7.85;;
65234;SDS011;51820;48.374;10.930;2023-02-13T02:53:22;23.17;;;7.55;;
65234;SDS011;51820;48.374;10.930;2023-02-13T02:55:59;23.67;;;7.70;;
65234;SDS011;51820;48.374;10.930;2023-02-13T02:58:46;20.75;;;7.30;;
65234;SDS011;51820;48.374;10.930;2023-02-13T03:01:40;24.45;;;8.25;;
65234;SDS011;51820;48.374;10.930;2023-02-13T03:04:28;20.40;;;6.20;;
65234;SDS011;51820;48.374;10.930;2023-02-13T03:07:19;18.50;;;7.38;;
65234;SDS011;51820;48.374;10.930;2023-02-13T03:09:48;20.42;;;6.40;;
65234;SDS011;51820;48.374;10.930;2023-02-13T03:12:43;17.50;;;7.03;;
65234;SDS011;51820;48.374;10.930;2023-02-13T03:15:41;16.08;;;6.72;;
65234;SDS011;51820;48.374;10.930;2023-02-13T03:18:25;18.55;;;7.22;;
65234;SDS011;51820;48.374;10.930;2023-02-13T03:21:13;15.95;;;6.18;;
65234;SDS011;51820;48.374;10.930;2023-02-13T03:24:08;15.13;;;7.38;;
65234;SDS011;51820;48.374;10.930;2023-02-13T03:26:46;18.85;;;6.93;;
65234;SDS011;51820;48.374;10.930;2023-02-13T03:29:19;14.98;;;6.43;;
65234;SDS011;51820;48.374;10.930;2023-02-13T03:32:17;29.48;;;7.78;;
65234;SDS011;51820;48.374;10.930;2023-02-13T03:34:54;21.65;;;6.75;;
65234;SDS011;51820;48.374;10.930;2023-02-13T03:37:49;14.35;;;6.35;;
65234;SDS011;51820;48.374;10.930;2023-02-13T03:40:29;17.58;;;6.97;;
65234;SDS011;51820;48.374;10.930;2023-02-13T03:43:34;17.17;;;6.70;;
65234;SDS011;51820;48.374;10.930;2023-02-13T03:46:06;14.70;;;6.95;;
65234;SDS011;51820;48.374;10.930;2023-02-13T03:48:37;17.10;;;6.47;;
65234;SDS011;51820;48.374;10.930;2023-02-13T03:51:27;19.55;;;7.40;;
65234;SDS011;51820;48.374;10.930;2023-02-13T03:53:59;19.50;;;7.35;;
65234;SDS011;51820;48.374;10.930;2023-02-13T03:56:32;17.58;;;7.55;;
65234;SDS011;51820;48.374;10.930;2023-02-13T03:59:22;16.98;;;7.45;;
65234;SDS011;51820;48.374;10.930;2023-02-13T04:01:57;18.77;;;8.00;;
65234;SDS011;51820;48.374;10.930;2023-02-13T04:04:30;21.85;;;8.13;;
65234;SDS011;51820;48.374;10.930;2023-02-13T04:07:05;18.00;;;7.70;;
65234;SDS011;51820;48.374;10.930;2023-02-13T04:09:38;17.85;;;7.28;;
65234;SDS011;51820;48.374;10.930;2023-02-13T04:12:13;17.02;;;7.13;;
65234;SDS011;51820;48.374;10.930;2023-02-13T04:14:46;16.45;;;7.13;;
65234;SDS011;51820;48.374;10.930;2023-02-13T04:17:20;14.93;;;6.32;;
65234;SDS011;51820;48.374;10.930;2023-02-13T04:19:53;16.40;;;6.95;;
65234;SDS011;51820;48.374;10.930;2023-02-13T04:22:22;14.88;;;7.13;;
65234;SDS011;51820;48.374;10.930;2023-02-13T04:24:50;15.27;;;6.60;;
65234;SDS011;51820;48.374;10.930;2023-02-13T04:27:20;15.10;;;6.18;;
65234;SDS011;51820;48.374;10.930;2023-02-13T04:29:50;16.55;;;6.68;;
65234;SDS011;51820;48.374;10.930;2023-02-13T04:32:18;14.48;;;6.30;;
65234;SDS011;51820;48.374;10.930;2023-02-13T04:34:48;15.88;;;6.68;;
65234;SDS011;51820;48.374;10.930;2023-02-13T04:37:17;15.23;;;5.68;;
65234;SDS011;51820;48.374;10.930;2023-02-13T04:39:45;20.30;;;8.70;;
65234;SDS011;51820;48.374;10.930;2023-02-13T04:42:14;15.73;;;6.70;;
65234;SDS011;51820;48.374;10.930;2023-02-13T04:44:44;18.85;;;7.10;;
65234;SDS011;51820;48.374;10.930;2023-02-13T04:47:12;15.57;;;6.68;;
65234;SDS011;51820;48.374;10.930;2023-02-13T04:49:41;18.73;;;7.10;;
65234;SDS011;51820;48.374;10.930;2023-02-13T04:52:10;16.42;;;6.55;;
65234;SDS011;51820;48.374;10.930;2023-02-13T04:54:40;17.17;;;6.95;;
65234;SDS011;51820;48.374;10.930;2023-02-13T04:57:09;19.80;;;6.68;;
65234;SDS011;51820;48.374;10.930;2023-02-13T04:59:37;20.33;;;7.32;;
65234;SDS011;51820;48.374;10.930;2023-02-13T05:02:07;19.13;;;7.55;;
65234;SDS011;51820;48.374;10.930;2023-02-13T05:04:36;17.42;;;7.43;;
65234;SDS011;51820;48.374;10.930;2023-02-13T05:07:05;20.20;;;6.97;;
65234;SDS011;51820;48.374;10.930;2023-02-13T05:09:33;20.35;;;7.65;;
65234;SDS011;51820;48.374;10.930;2023-02-13T05:12:02;22.60;;;7.75;;
65234;SDS011;51820;48.374;10.930;2023-02-13T05:14:31;19.00;;;6.93;;
65234;SDS011;51820;48.374;10.930;2023-02-13T05:16:59;18.67;;;7.60;;
65234;SDS011;51820;48.374;10.930;2023-02-13T05:19:29;25.08;;;7.82;;
65234;SDS011;51820;48.374;10.930;2023-02-13T05:21:57;23.95;;;7.97;;
65234;SDS011;51820;48.374;10.930;2023-02-13T05:24:43;17.48;;;6.47;;
65234;SDS011;51820;48.374;10.930;2023-02-13T05:27:12;18.55;;;7.00;;
65234;SDS011;51820;48.374;10.930;2023-02-13T05:29:40;18.05;;;6.95;;
65234;SDS011;51820;48.374;10.930;2023-02-13T05:32:09;18.25;;;7.57;;
65234;SDS011;51820;48.374;10.930;2023-02-13T05:34:39;21.98;;;7.88;;
65234;SDS011;51820;48.374;10.930;2023-02-13T05:37:07;23.55;;;7.97;;
65234;SDS011;51820;48.374;10.930;2023-02-13T05:39:35;28.05;;;8.48;;
65234;SDS011;51820;48.374;10.930;2023-02-13T05:42:04;23.38;;;8.55;;
65234;SDS011;51820;48.374;10.930;2023-02-13T05:44:32;19.75;;;7.85;;
65234;SDS011;51820;48.374;10.930;2023-02-13T05:47:00;23.48;;;7.32;;
65234;SDS011;51820;48.374;10.930;2023-02-13T05:49:31;21.33;;;8.07;;
65234;SDS011;51820;48.374;10.930;2023-02-13T05:52:01;20.13;;;7.38;;
65234;SDS011;51820;48.374;10.930;2023-02-13T05:54:30;20.23;;;7.75;;
65234;SDS011;51820;48.374;10.930;2023-02-13T05:56:58;19.60;;;8.07;;
65234;SDS011;51820;48.374;10.930;2023-02-13T05:59:27;23.23;;;8.40;;
65234;SDS011;51820;48.374;10.930;2023-02-13T06:01:55;19.55;;;7.22;;
65234;SDS011;51820;48.374;10.930;2023-02-13T06:04:24;25.17;;;7.13;;
65234;SDS011;51820;48.374;10.930;2023-02-13T06:06:52;18.77;;;7.57;;
65234;SDS011;51820;48.374;10.930;2023-02-13T06:09:22;23.63;;;8.02;;
65234;SDS011;51820;48.374;10.930;2023-02-13T06:11:50;19.38;;;7.72;;
65234;SDS011;51820;48.374;10.930;2023-02-13T06:14:19;23.40;;;8.18;;
65234;SDS011;51820;48.374;10.930;2023-02-13T06:16:47;19.45;;;7.57;;
65234;SDS011;51820;48.374;10.930;2023-02-13T06:19:16;27.92;;;8.45;;
65234;SDS011;51820;48.374;10.930;2023-02-13T06:21:44;23.00;;;7.95;;
65234;SDS011;51820;48.374;10.930;2023-02-13T06:24:13;23.45;;;8.13;;
65234;SDS011;51820;48.374;10.930;2023-02-13T06:26:43;28.27;;;8.32;;
65234;SDS011;51820;48.374;10.930;2023-02-13T06:29:11;32.92;;;8.27;;
65234;SDS011;51820;48.374;10.930;2023-02-13T06:31:39;23.30;;;8.63;;
65234;SDS011;51820;48.374;10.930;2023-02-13T06:34:08;22.17;;;8.75;;
65234;SDS011;51820;48.374;10.930;2023-02-13T06:36:36;20.10;;;8.10;;
65234;SDS011;51820;48.374;10.930;2023-02-13T06:39:08;24.08;;;8.48;;
65234;SDS011;51820;48.374;10.930;2023-02-13T06:41:37;23.92;;;8.02;;
65234;SDS011;51820;48.374;10.930;2023-02-13T06:44:06;20.60;;;8.75;;
65234;SDS011;51820;48.374;10.930;2023-02-13T06:46:35;21.48;;;7.95;;
65234;SDS011;51820;48.374;10.930;2023-02-13T06:49:03;23.83;;;8.18;;
65234;SDS011;51820;48.374;10.930;2023-02-13T06:51:32;21.10;;;8.43;;
65234;SDS011;51820;48.374;10.930;2023-02-13T06:54:00;19.35;;;7.90;;
65234;SDS011;51820;48.374;10.930;2023-02-13T06:56:29;21.13;;;7.68;;
65234;SDS011;51820;48.374;10.930;2023-02-13T06:58:58;18.77;;;7.15;;
65234;SDS011;51820;48.374;10.930;2023-02-13T07:01:27;21.20;;;7.93;;
65234;SDS011;51820;48.374;10.930;2023-02-13T07:03:56;18.45;;;6.57;;
65234;SDS011;51820;48.374;10.930;2023-02-13T07:06:25;18.95;;;6.57;;
65234;SDS011;51820;48.374;10.930;2023-02-13T07:08:54;18.60;;;7.18;;
65234;SDS011;51820;48.374;10.930;2023-02-13T07:11:23;19.92;;;7.50;;
65234;SDS011;51820;48.374;10.930;2023-02-13T07:13:51;17.52;;;6.93;;
65234;SDS011;51820;48.374;10.930;2023-02-13T07:16:20;18.70;;;6.95;;
65234;SDS011;51820;48.374;10.930;2023-02-13T07:18:50;21.08;;;7.55;;
65234;SDS011;51820;48.374;10.930;2023-02-13T07:21:18;20.38;;;7.93;;
65234;SDS011;51820;48.374;10.930;2023-02-13T07:23:47;26.55;;;7.95;;
65234;SDS011;51820;48.374;10.930;2023-02-13T07:26:15;17.63;;;7.10;;
65234;SDS011;51820;48.374;10.930;2023-02-13T07:28:44;22.52;;;8.20;;
65234;SDS011;51820;48.374;10.930;2023-02-13T07:31:12;20.30;;;7.88;;
65234;SDS011;51820;48.374;10.930;2023-02-13T07:33:41;22.20;;;8.23;;
65234;SDS011;51820;48.374;10.930;2023-02-13T07:36:11;21.05;;;8.45;;
65234;SDS011;51820;48.374;10.930;2023-02-13T07:38:39;19.65;;;7.78;;
65234;SDS011;51820;48.374;10.930;2023-02-13T07:41:07;21.75;;;8.40;;
65234;SDS011;51820;48.374;10.930;2023-02-13T07:43:36;31.70;;;8.48;;
65234;SDS011;51820;48.374;10.930;2023-02-13T07:46:04;19.10;;;7.65;;
65234;SDS011;51820;48.374;10.930;2023-02-13T07:48:32;18.08;;;6.70;;
65234;SDS011;51820;48.374;10.930;2023-02-13T07:51:01;21.77;;;7.88;;
65234;SDS011;51820;48.374;10.930;2023-02-13T07:53:32;21.17;;;7.78;;
65234;SDS011;51820;48.374;10.930;2023-02-13T07:56:03;22.88;;;8.13;;
65234;SDS011;51820;48.374;10.930;2023-02-13T07:58:32;20.77;;;7.50;;
65234;SDS011;51820;48.374;10.930;2023-02-13T08:01:04;21.65;;;8.52;;
65234;SDS011;51820;48.374;10.930;2023-02-13T08:03:33;20.65;;;8.23;;
65234;SDS011;51820;48.374;10.930;2023-02-13T08:06:01;22.98;;;7.70;;
65234;SDS011;51820;48.374;10.930;2023-02-13T08:08:32;19.40;;;7.70;;
65234;SDS011;51820;48.374;10.930;2023-02-13T08:11:02;20.77;;;7.63;;
65234;SDS011;51820;48.374;10.930;2023-02-13T08:13:50;17.73;;;8.07;;
65234;SDS011;51820;48.374;10.930;2023-02-13T08:16:19;20.08;;;7.55;;
65234;SDS011;51820;48.374;10.930;2023-02-13T08:18:47;18.90;;;7.10;;
65234;SDS011;51820;48.374;10.930;2023-02-13T08:21:16;19.00;;;8.30;;
65234;SDS011;51820;48.374;10.930;2023-02-13T08:23:45;19.63;;;7.68;;
65234;SDS011;51820;48.374;10.930;2023-02-13T08:26:17;19.52;;;6.90;;
65234;SDS011;51820;48.374;10.930;2023-02-13T08:28:45;18.70;;;7.00;;
65234;SDS011;51820;48.374;10.930;2023-02-13T08:31:14;19.98;;;7.72;;
65234;SDS011;51820;48.374;10.930;2023-02-13T08:33:42;20.80;;;7.65;;
65234;SDS011;51820;48.374;10.930;2023-02-13T08:36:11;19.80;;;7.28;;
65234;SDS011;51820;48.374;10.930;2023-02-13T08:38:39;18.35;;;8.05;;
65234;SDS011;51820;48.374;10.930;2023-02-13T08:41:09;19.25;;;7.45;;
65234;SDS011;51820;48.374;10.930;2023-02-13T08:43:37;24.65;;;7.85;;
65234;SDS011;51820;48.374;10.930;2023-02-13T08:46:06;23.38;;;7.85;;
65234;SDS011;51820;48.374;10.930;2023-02-13T08:48:37;22.30;;;8.20;;
65234;SDS011;51820;48.374;10.930;2023-02-13T08:51:06;23.48;;;8.15;;
65234;SDS011;51820;48.374;10.930;2023-02-13T08:53:34;20.50;;;7.03;;
65234;SDS011;51820;48.374;10.930;2023-02-13T08:56:03;25.50;;;8.07;;
65234;SDS011;51820;48.374;10.930;2023-02-13T08:58:34;21.27;;;8.10;;
65234;SDS011;51820;48.374;10.930;2023-02-13T09:01:03;23.88;;;8.27;;
65234;SDS011;51820;48.374;10.930;2023-02-13T09:03:32;22.38;;;8.30;;
65234;SDS011;51820;48.374;10.930;2023-02-13T09:06:00;20.33;;;8.15;;
65234;SDS011;51820;48.374;10.930;2023-02-13T09:08:29;20.65;;;7.78;;
65234;SDS011;51820;48.374;10.930;2023-02-13T09:10:58;24.30;;;8.02;;
65234;SDS011;51820;48.374;10.930;2023-02-13T09:13:28;20.23;;;7.90;;
65234;SDS011;51820;48.374;10.930;2023-02-13T09:16:00;19.85;;;7.85;;
65234;SDS011;51820;48.374;10.930;2023-02-13T09:18:31;18.20;;;7.50;;
65234;SDS011;51820;48.374;10.930;2023-02-13T09:21:00;19.73;;;7.35;;
65234;SDS011;51820;48.374;10.930;2023-02-13T09:23:30;19.52;;;7.95;;
65234;SDS011;51820;48.374;10.930;2023-02-13T09:25:58;16.50;;;6.90;;
65234;SDS011;51820;48.374;10.930;2023-02-13T09:28:27;20.52;;;7.45;;
65234;SDS011;51820;48.374;10.930;2023-02-13T09:30:56;18.65;;;6.35;;
65234;SDS011;51820;48.374;10.930;2023-02-13T09:33:26;19.27;;;7.20;;
65234;SDS011;51820;48.374;10.930;2023-02-13T09:35:54;21.27;;;7.20;;
65234;SDS011;51820;48.374;10.930;2023-02-13T09:38:22;17.02;;;6.85;;
65234;SDS011;51820;48.374;10.930;2023-02-13T09:40:52;23.98;;;7.95;;
65234;SDS011;51820;48.374;10.930;2023-02-13T09:43:25;18.98;;;7.95;;
65234;SDS011;51820;48.374;10.930;2023-02-13T09:45:57;22.48;;;8.30;;
65234;SDS011;51820;48.374;10.930;2023-02-13T09:48:29;23.45;;;8.30;;
65234;SDS011;51820;48.374;10.930;2023-02-13T09:50:59;21.70;;;7.75;;
65234;SDS011;51820;48.374;10.930;2023-02-13T09:53:28;22.15;;;8.18;;
65234;SDS011;51820;48.374;10.930;2023-02-13T09:55:59;20.63;;;8.23;;
65234;SDS011;51820;48.374;10.930;2023-02-13T09:58:40;21.23;;;8.60;;
65234;SDS011;51820;48.374;10.930;2023-02-13T10:01:15;19.60;;;8.35;;
65234;SDS011;51820;48.374;10.930;2023-02-13T10:03:51;21.15;;;8.27;;
65234;SDS011;51820;48.374;10.930;2023-02-13T10:06:32;21.08;;;8.25;;
65234;SDS011;51820;48.374;10.930;2023-02-13T10:09:16;20.48;;;8.05;;
65234;SDS011;51820;48.374;10.930;2023-02-13T10:11:57;20.52;;;8.07;;
65234;SDS011;51820;48.374;10.930;2023-02-13T10:14:34;28.58;;;11.45;;
65234;SDS011;51820;48.374;10.930;2023-02-13T10:17:09;45.88;;;16.38;;
65234;SDS011;51820;48.374;10.930;2023-02-13T10:19:42;22.25;;;8.52;;
65234;SDS011;51820;48.374;10.930;2023-02-13T10:22:15;19.92;;;7.63;;
65234;SDS011;51820;48.374;10.930;2023-02-13T10:24:46;18.65;;;7.15;;
65234;SDS011;51820;48.374;10.930;2023-02-13T10:27:19;22.45;;;7.68;;
65234;SDS011;51820;48.374;10.930;2023-02-13T10:29:52;20.85;;;8.30;;
65234;SDS011;51820;48.374;10.930;2023-02-13T10:32:36;19.58;;;7.93;;
65234;SDS011;51820;48.374;10.930;2023-02-13T10:35:17;20.13;;;8.40;;
65234;SDS011;51820;48.374;10.930;2023-02-13T10:37:50;22.70;;;8.10;;
65234;SDS011;51820;48.374;10.930;2023-02-13T10:40:22;25.02;;;8.95;;
65234;SDS011;51820;48.374;10.930;2023-02-13T10:42:58;19.83;;;7.80;;
65234;SDS011;51820;48.374;10.930;2023-02-13T10:45:46;20.77;;;8.00;;
65234;SDS011;51820;48.374;10.930;2023-02-13T10:48:26;20.90;;;7.93;;
65234;SDS011;51820;48.374;10.930;2023-02-13T10:51:27;22.80;;;8.88;;
65234;SDS011;51820;48.374;10.930;2023-02-13T10:54:11;17.83;;;7.43;;
65234;SDS011;51820;48.374;10.930;2023-02-13T10:56:50;21.77;;;8.00;;
65234;SDS011;51820;48.374;10.930;2023-02-13T10:59:31;20.42;;;8.27;;
65234;SDS011;51820;48.374;10.930;2023-02-13T11:02:20;20.60;;;7.75;;
65234;SDS011;51820;48.374;10.930;2023-02-13T11:04:51;20.83;;;7.95;;
65234;SDS011;51820;48.374;10.930;2023-02-13T11:07:36;20.70;;;8.30;;
65234;SDS011;51820;48.374;10.930;2023-02-13T11:10:12;18.65;;;7.80;;
65234;SDS011;51820;48.374;10.930;2023-02-13T11:12:42;21.40;;;8.52;;
65234;SDS011;51820;48.374;10.930;2023-02-13T11:15:20;20.80;;;7.22;;
65234;SDS011;51820;48.374;10.930;2023-02-13T11:17:51;19.38;;;7.68;;
65234;SDS011;51820;48.374;10.930;2023-02-13T11:20:26;20.92;;;8.30;;
65234;SDS011;51820;48.374;10.930;2023-02-13T11:23:12;17.35;;;7.43;;
65234;SDS011;51820;48.374;10.930;2023-02-13T11:25:55;18.42;;;7.63;;
65234;SDS011;51820;48.374;10.930;2023-02-13T11:28:26;22.88;;;8.57;;
65234;SDS011;51820;48.374;10.930;2023-02-13T11:31:07;20.05;;;8.35;;
65234;SDS011;51820;48.374;10.930;2023-02-13T11:33:38;21.33;;;8.45;;
65234;SDS011;51820;48.374;10.930;2023-02-13T11:36:07;21.85;;;8.70;;
65234;SDS011;51820;48.374;10.930;2023-02-13T11:38:42;24.05;;;9.38;;
65234;SDS011;51820;48.374;10.930;2023-02-13T11:41:11;20.92;;;8.32;;
65234;SDS011;51820;48.374;10.930;2023-02-13T11:43:43;20.83;;;8.32;;
65234;SDS011;51820;48.374;10.930;2023-02-13T11:46:17;18.65;;;7.95;;
65234;SDS011;51820;48.374;10.930;2023-02-13T11:48:57;18.73;;;7.72;;
65234;SDS011;51820;48.374;10.930;2023-02-13T11:51:34;21.08;;;7.97;;
65234;SDS011;51820;48.374;10.930;2023-02-13T11:54:11;21.40;;;7.85;;
65234;SDS011;51820;48.374;10.930;2023-02-13T11:56:58;21.58;;;8.20;;
65234;SDS011;51820;48.374;10.930;2023-02-13T11:59:32;22.30;;;9.35;;
65234;SDS011;51820;48.374;10.930;2023-02-13T12:02:14;19.85;;;8.32;;
65234;SDS011;51820;48.374;10.930;2023-02-13T12:04:45;22.35;;;8.45;;
65234;SDS011;51820;48.374;10.930;2023-02-13T12:07:24;19.50;;;8.45;;
65234;SDS011;51820;48.374;10.930;2023-02-13T12:09:58;21.17;;;8.63;;
65234;SDS011;51820;48.374;10.930;2023-02-13T12:12:31;25.25;;;8.30;;
65234;SDS011;51820;48.374;10.930;2023-02-13T12:15:09;22.77;;;8.80;;
65234;SDS011;51820;48.374;10.930;2023-02-13T12:17:44;18.35;;;7.72;;
65234;SDS011;51820;48.374;10.930;2023-02-13T12:20:16;20.27;;;8.43;;
65234;SDS011;51820;48.374;10.930;2023-02-13T12:22:47;25.10;;;8.48;;
65234;SDS011;51820;48.374;10.930;2023-02-13T12:28:15;22.10;;;8.57;;
65234;SDS011;51820;48.374;10.930;2023-02-13T12:37:18;19.15;;;8.52;;
65234;SDS011;51820;48.374;10.930;2023-02-13T12:40:01;17.52;;;7.70;;
65234;SDS011;51820;48.374;10.930;2023-02-13T12:42:46;19.20;;;8.70;;
65234;SDS011;51820;48.374;10.930;2023-02-13T12:45:27;20.55;;;8.02;;
65234;SDS011;51820;48.374;10.930;2023-02-13T12:48:03;20.10;;;8.02;;
65234;SDS011;51820;48.374;10.930;2023-02-13T12:50:47;28.80;;;8.60;;
65234;SDS011;51820;48.374;10.930;2023-02-13T12:53:44;19.65;;;8.52;;
65234;SDS011;51820;48.374;10.930;2023-02-13T12:56:49;25.75;;;8.82;;
65234;SDS011;51820;48.374;10.930;2023-02-13T12:59:30;21.13;;;8.55;;
65234;SDS011;51820;48.374;10.930;2023-02-13T13:05:22;25.73;;;9.05;;
65234;SDS011;51820;48.374;10.930;2023-02-13T13:08:06;21.20;;;8.48;;
65234;SDS011;51820;48.374;10.930;2023-02-13T13:10:52;19.20;;;8.60;;
65234;SDS011;51820;48.374;10.930;2023-02-13T13:13:36;21.42;;;8.98;;
65234;SDS011;51820;48.374;10.930;2023-02-13T13:16:19;22.73;;;9.15;;
65234;SDS011;51820;48.374;10.930;2023-02-13T13:18:57;23.00;;;9.57;;
65234;SDS011;51820;48.374;10.930;2023-02-13T13:21:34;25.48;;;8.68;;
65234;SDS011;51820;48.374;10.930;2023-02-13T13:24:12;20.48;;;8.98;;
65234;SDS011;51820;48.374;10.930;2023-02-13T13:26:51;23.25;;;9.13;;
65234;SDS011;51820;48.374;10.930;2023-02-13T13:29:23;20.00;;;8.55;;
65234;SDS011;51820;48.374;10.930;2023-02-13T13:31:56;20.23;;;8.23;;
65234;SDS011;51820;48.374;10.930;2023-02-13T13:34:29;23.40;;;9.25;;
65234;SDS011;51820;48.374;10.930;2023-02-13T13:37:01;22.75;;;8.73;;
65234;SDS011;51820;48.374;10.930;2023-02-13T13:39:39;20.30;;;7.97;;
65234;SDS011;51820;48.374;10.930;2023-02-13T13:42:19;23.75;;;8.63;;
65234;SDS011;51820;48.374;10.930;2023-02-13T13:45:03;21.10;;;8.20;;
65234;SDS011;51820;48.374;10.930;2023-02-13T13:50:53;20.65;;;8.60;;
65234;SDS011;51820;48.374;10.930;2023-02-13T13:53:23;23.98;;;9.70;;
65234;SDS011;51820;48.374;10.930;2023-02-13T13:55:59;23.08;;;8.82;;
65234;SDS011;51820;48.374;10.930;2023-02-13T13:58:31;22.67;;;9.05;;
65234;SDS011;51820;48.374;10.930;2023-02-13T14:03:58;17.85;;;8.40;;
65234;SDS011;51820;48.374;10.930;2023-02-13T14:06:28;21.33;;;8.73;;
65234;SDS011;51820;48.374;10.930;2023-02-13T14:09:38;20.92;;;8.02;;
65234;SDS011;51820;48.374;10.930;2023-02-13T14:18:19;22.67;;;8.95;;
65234;SDS011;51820;48.374;10.930;2023-02-13T14:21:01;20.02;;;8.40;;
65234;SDS011;51820;48.374;10.930;2023-02-13T14:23:34;20.10;;;8.98;;
65234;SDS011;51820;48.374;10.930;2023-02-13T14:26:27;21.73;;;9.18;;
65234;SDS011;51820;48.374;10.930;2023-02-13T14:32:04;19.38;;;8.48;;
65234;SDS011;51820;48.374;10.930;2023-02-13T14:34:51;21.80;;;8.88;;
65234;SDS011;51820;48.374;10.930;2023-02-13T14:37:26;22.30;;;9.25;;
65234;SDS011;51820;48.374;10.930;2023-02-13T14:40:10;19.35;;;8.55;;
65234;SDS011;51820;48.374;10.930;2023-02-13T14:42:54;21.88;;;9.07;;
65234;SDS011;51820;48.374;10.930;2023-02-13T14:45:27;22.58;;;10.35;;
65234;SDS011;51820;48.374;10.930;2023-02-13T14:48:02;21.70;;;9.35;;
65234;SDS011;51820;48.374;10.930;2023-02-13T14:50:40;22.70;;;9.90;;
65234;SDS011;51820;48.374;10.930;2023-02-13T14:53:17;23.70;;;9.13;;
65234;SDS011;51820;48.374;10.930;2023-02-13T14:55:53;21.33;;;9.10;;
65234;SDS011;51820;48.374;10.930;2023-02-13T14:58:26;21.30;;;9.13;;
65234;SDS011;51820;48.374;10.930;2023-02-13T15:00:59;26.20;;;9.50;;
65234;SDS011;51820;48.374;10.930;2023-02-13T15:03:35;24.45;;;9.95;;
65234;SDS011;51820;48.374;10.930;2023-02-13T15:06:10;26.65;;;10.65;;
65234;SDS011;51820;48.374;10.930;2023-02-13T15:08:48;24.73;;;10.38;;
65234;SDS011;51820;48.374;10.930;2023-02-13T15:11:33;24.25;;;10.05;;
65234;SDS011;51820;48.374;10.930;2023-02-13T15:14:19;23.27;;;9.80;;
65234;SDS011;51820;48.374;10.930;2023-02-13T15:16:56;22.83;;;9.77;;
65234;SDS011;51820;48.374;10.930;2023-02-13T15:19:29;23.65;;;9.65;;
65234;SDS011;51820;48.374;10.930;2023-02-13T15:21:58;21.75;;;9.65;;
65234;SDS011;51820;48.374;10.930;2023-02-13T15:24:36;28.52;;;10.60;;
65234;SDS011;51820;48.374;10.930;2023-02-13T15:27:15;21.60;;;9.20;;
65234;SDS011;51820;48.374;10.930;2023-02-13T15:30:02;24.42;;;9.73;;
65234;SDS011;51820;48.374;10.930;2023-02-13T15:32:53;22.92;;;9.73;;
65234;SDS011;51820;48.374;10.930;2023-02-13T15:35:27;22.77;;;9.40;;
65234;SDS011;51820;48.374;10.930;2023-02-13T15:38:17;25.42;;;10.68;;
65234;SDS011;51820;48.374;10.930;2023-02-13T15:40:49;22.48;;;10.10;;
65234;SDS011;51820;48.374;10.930;2023-02-13T15:43:20;22.60;;;9.30;;
65234;SDS011;51820;48.374;10.930;2023-02-13T15:45:52;23.52;;;9.50;;
65234;SDS011;51820;48.374;10.930;2023-02-13T15:48:24;22.90;;;9.48;;
65234;SDS011;51820;48.374;10.930;2023-02-13T15:50:53;20.17;;;9.25;;
65234;SDS011;51820;48.374;10.930;2023-02-13T15:53:22;21.98;;;9.25;;